Etusivu
METAR-TAF:

METAR-TAF

Lentoasemat :

Jerez de la Frontera, Espanja

Leveyspiiri: 36-45N, Pituuspiiri: 006-04W, korkeus merenpinnasta: 27 m

Tämänhetkinen sää

Tämä raportti tehtiin 21 minuuttia sitten, kello 23.30 UTC
Tuuli 2 kn idästä
Lämpötila 17°C
Kosteus 72%
Ilmanpaine 1016 hPa
Näkyvyys 10 km tai enemmän
ei pilviä alle 1500 m:ssä eikä cumulonimbus-pilviä

METAR: LEJR 252330Z AUTO 09002KT CAVOK 17/12 Q1016

Aika: 01:51 (23:51 UTC)

Sääennuste

Tämä raportti tehtiin 3 tuntia ja 51 minuuttia sitten, kello 20.00 UTC
Ennuste voimassa 25. päivästä klo 21 UTC - 26. päivään klo 21 UTC
Tuuli 2 kn eri suunnista
Näkyvyys 10 km tai enemmän
ei pilviä alle 1500 m:ssä eikä cumulonimbus-pilviä
Tulossa
26. päivästä klo 13 UTC - 26. päivään klo 15 UTC
Tuuli 10 kn lännestä
Tulossa
26. päivästä klo 19 UTC - 26. päivään klo 21 UTC
Tuuli 2 kn eri suunnista

TAF: LEJR 252000Z 2521/2621 VRB02KT CAVOK TX32/2615Z TN12/2606Z BECMG 2613/2615 28010KT BECMG 2619/2621 VRB02KT

Säähavainnot ja -ennusteet yli 4000 lentoasemalta (METAR- ja TAF-raportit).

Käytössä olevat sääasemat on merkitty karttaan keltaisilla ja punaisilla pisteillä.

Aseta hiiri pisteen päälle nähdäksesi sääaseman nimen.

Klikkaa sitten nähdäksesi säähavainnot ja -ennusteet.

Kartan vaihtaminen: klikkaa mustalla rastilla varustettuja vihreitä pisteitä, niin voit zoomata sisään; viivalla varustettua vihreää pistettä, niin voit zoomata ulos tai vihreitä nuolia, niin pääset viereisille kartoille.


METAR-TAF: